createdAt,value
2019-02-07T00:00:58.683Z,54.50
2019-02-07T00:03:26.715Z,50.47
2019-02-07T00:05:54.716Z,49.30
2019-02-07T00:08:22.940Z,62.97
2019-02-07T00:10:50.987Z,63.70
2019-02-07T00:13:19.075Z,52.83
2019-02-07T00:15:47.100Z,57.07
2019-02-07T00:18:15.171Z,53.20
2019-02-07T00:20:43.370Z,65.60
2019-02-07T00:23:11.385Z,64.37
2019-02-07T00:25:39.596Z,58.60
2019-02-07T00:28:10.262Z,45.13
2019-02-07T00:30:38.351Z,52.20
2019-02-07T00:33:06.577Z,64.83
2019-02-07T00:35:34.551Z,45.10
2019-02-07T00:38:02.592Z,34.73
2019-02-07T00:40:30.706Z,31.83
2019-02-07T00:42:58.647Z,39.07
2019-02-07T00:45:26.638Z,40.07
2019-02-07T00:47:54.723Z,45.17
2019-02-07T00:50:22.667Z,29.30
2019-02-07T00:52:50.739Z,39.33
2019-02-07T00:55:18.817Z,36.53
2019-02-07T00:57:46.963Z,35.50
2019-02-07T01:00:21.864Z,38.90
2019-02-07T01:02:52.942Z,46.43
2019-02-07T01:05:21.561Z,45.93
2019-02-07T01:07:49.647Z,38.27
2019-02-07T01:10:19.296Z,44.50
2019-02-07T01:12:47.375Z,42.07
2019-02-07T01:15:15.596Z,38.73
2019-02-07T01:17:43.540Z,41.17
2019-02-07T01:20:12.427Z,42.63
2019-02-07T01:22:40.578Z,37.70
2019-02-07T01:25:10.233Z,40.17
2019-02-07T01:27:38.308Z,43.70
2019-02-07T01:30:06.879Z,48.43
2019-02-07T01:32:34.904Z,34.40
2019-02-07T01:35:02.987Z,43.70
2019-02-07T01:37:31.067Z,35.40
2019-02-07T01:39:58.961Z,38.40
2019-02-07T01:42:27.390Z,38.97
2019-02-07T01:44:55.380Z,36.97
2019-02-07T01:47:23.378Z,40.03
2019-02-07T01:49:53.143Z,32.40
2019-02-07T01:52:21.221Z,32.53
2019-02-07T01:54:49.197Z,35.57
2019-02-07T01:57:17.115Z,33.43
2019-02-07T01:59:45.395Z,32.27
2019-02-07T02:02:13.307Z,33.90
2019-02-07T02:04:41.228Z,33.30
2019-02-07T02:07:09.226Z,36.90
2019-02-07T02:09:37.354Z,35.67
2019-02-07T02:12:05.675Z,41.27
2019-02-07T02:14:33.868Z,32.13
2019-02-07T02:17:01.795Z,36.73
2019-02-07T02:19:29.717Z,34.10
2019-02-07T02:21:57.818Z,31.70
2019-02-07T02:24:25.832Z,30.80
2019-02-07T02:26:53.827Z,33.23
2019-02-07T02:29:21.901Z,29.47
2019-02-07T02:31:50.635Z,33.50
2019-02-07T02:34:18.656Z,33.30
2019-02-07T02:36:46.616Z,31.87
2019-02-07T02:39:14.670Z,34.10
2019-02-07T02:41:42.665Z,26.97
2019-02-07T02:44:10.659Z,32.90
2019-02-07T02:46:38.759Z,34.33
2019-02-07T02:49:07.326Z,28.67
2019-02-07T02:51:35.377Z,25.77
2019-02-07T02:54:03.951Z,28.20
2019-02-07T02:56:32.235Z,30.30
2019-02-07T02:59:00.215Z,33.60
2019-02-07T03:01:52.919Z,29.50
2019-02-07T03:04:53.099Z,27.37
2019-02-07T03:07:52.312Z,31.90
2019-02-07T03:10:42.811Z,25.27
2019-02-07T03:13:29.129Z,34.73
2019-02-07T03:16:16.549Z,30.57
2019-02-07T03:19:10.075Z,33.63
2019-02-07T03:22:08.925Z,25.67
2019-02-07T03:25:01.912Z,27.07
2019-02-07T03:27:53.688Z,25.03
2019-02-07T03:30:50.099Z,34.07
2019-02-07T03:33:35.061Z,26.27
2019-02-07T03:36:20.335Z,27.73
2019-02-07T03:39:00.725Z,24.07
2019-02-07T03:41:40.080Z,24.47
2019-02-07T03:44:39.057Z,26.50
2019-02-07T03:47:35.189Z,27.33
2019-02-07T03:50:27.935Z,27.50
2019-02-07T03:53:21.033Z,23.77
2019-02-07T03:56:23.406Z,24.00
2019-02-07T03:59:19.400Z,29.80
2019-02-07T04:02:06.348Z,22.63
2019-02-07T04:04:42.423Z,27.20
2019-02-07T04:07:29.646Z,27.47
2019-02-07T04:10:07.967Z,28.00
2019-02-07T04:12:54.947Z,26.67
2019-02-07T04:16:00.051Z,28.97
2019-02-07T04:18:52.029Z,27.53
2019-02-07T04:21:51.168Z,24.70
2019-02-07T04:24:44.448Z,27.27
2019-02-07T04:27:30.239Z,28.17
2019-02-07T04:30:29.520Z,26.40
2019-02-07T04:33:28.546Z,29.57
2019-02-07T04:36:14.174Z,30.40
2019-02-07T04:38:59.908Z,29.37
2019-02-07T04:41:59.238Z,33.97
2019-02-07T04:44:44.771Z,29.97
2019-02-07T04:47:34.784Z,30.90
2019-02-07T04:50:37.136Z,30.27
2019-02-07T04:53:24.347Z,39.03
2019-02-07T04:56:03.646Z,28.57
2019-02-07T04:58:54.165Z,30.37
2019-02-07T05:01:53.059Z,27.00
2019-02-07T05:04:42.771Z,25.43
2019-02-07T05:07:31.165Z,24.03
2019-02-07T05:10:21.328Z,25.23
2019-02-07T05:13:03.197Z,23.30
2019-02-07T05:15:50.265Z,24.20
2019-02-07T05:18:55.921Z,27.00
2019-02-07T05:21:41.847Z,23.80
2019-02-07T05:24:34.968Z,27.10
2019-02-07T05:27:21.970Z,29.87
2019-02-07T05:30:12.097Z,20.60
2019-02-07T05:32:57.568Z,26.60
2019-02-07T05:35:47.701Z,26.90
2019-02-07T05:38:46.960Z,16.23
2019-02-07T05:41:32.591Z,19.57
2019-02-07T05:44:13.619Z,21.77
2019-02-07T05:47:00.753Z,15.50
2019-02-07T05:49:47.772Z,18.93
2019-02-07T05:52:40.808Z,19.70
2019-02-07T05:55:40.462Z,21.77
2019-02-07T05:58:19.037Z,22.90
2019-02-07T06:01:11.819Z,20.03
2019-02-07T06:03:51.630Z,25.73
2019-02-07T06:06:43.150Z,24.23
2019-02-07T06:09:26.487Z,27.73
2019-02-07T06:12:25.518Z,32.77
2019-02-07T06:15:09.380Z,30.13
2019-02-07T06:17:44.816Z,23.57
2019-02-07T06:20:22.113Z,27.97
2019-02-07T06:23:12.428Z,38.43
2019-02-07T06:26:08.689Z,31.53
2019-02-07T06:29:01.837Z,30.17
2019-02-07T06:31:51.651Z,35.10
2019-02-07T06:34:37.335Z,26.77
2019-02-07T06:37:14.546Z,32.17
2019-02-07T06:39:51.123Z,31.30
2019-02-07T06:42:38.411Z,30.30
2019-02-07T06:45:28.342Z,30.00
2019-02-07T06:48:09.515Z,22.87
2019-02-07T06:51:08.700Z,28.60
2019-02-07T06:53:55.832Z,26.43
2019-02-07T06:56:46.129Z,23.77
2019-02-07T06:59:36.562Z,23.47
2019-02-07T07:02:35.872Z,34.27
2019-02-07T07:05:32.878Z,24.77
2019-02-07T07:08:27.572Z,33.50
2019-02-07T07:11:23.877Z,25.33
2019-02-07T07:14:14.134Z,27.77
2019-02-07T07:17:04.327Z,32.93
2019-02-07T07:19:54.452Z,25.30
2019-02-07T07:22:40.148Z,23.37
2019-02-07T07:25:33.005Z,24.77
2019-02-07T07:28:14.837Z,28.67
2019-02-07T07:31:00.460Z,37.73
2019-02-07T07:33:53.378Z,26.00
2019-02-07T07:36:55.395Z,23.00
2019-02-07T07:39:50.131Z,26.23
2019-02-07T07:42:43.312Z,26.50
2019-02-07T07:45:47.848Z,18.50
2019-02-07T07:48:49.675Z,19.77
2019-02-07T07:51:35.471Z,24.37
2019-02-07T07:54:28.267Z,23.27
2019-02-07T07:57:14.193Z,19.67
2019-02-07T07:59:59.895Z,21.90
2019-02-07T08:02:40.066Z,20.53
2019-02-07T08:05:30.154Z,13.53
2019-02-07T08:08:23.380Z,16.50
2019-02-07T08:11:08.206Z,17.13
2019-02-07T08:13:54.128Z,24.37
2019-02-07T08:16:47.174Z,17.37
2019-02-07T08:19:52.704Z,18.33
2019-02-07T08:22:38.457Z,22.17
2019-02-07T08:25:26.396Z,18.93
2019-02-07T08:28:11.823Z,20.00
2019-02-07T08:30:59.929Z,19.00
2019-02-07T08:33:45.786Z,16.03
2019-02-07T08:36:27.537Z,15.40
2019-02-07T08:39:17.557Z,20.27
2019-02-07T08:42:03.310Z,22.97
2019-02-07T08:44:56.548Z,22.20
2019-02-07T08:47:43.768Z,18.83
2019-02-07T08:50:30.174Z,17.33
2019-02-07T08:53:06.973Z,15.20
2019-02-07T08:55:56.782Z,18.73
2019-02-07T08:58:49.632Z,9.33
2019-02-07T09:01:35.439Z,11.17
2019-02-07T09:04:35.150Z,17.90
2019-02-07T09:07:20.892Z,12.97
2019-02-07T09:10:14.651Z,9.40
2019-02-07T09:13:07.658Z,16.27
2019-02-07T09:15:48.901Z,15.73
2019-02-07T09:18:39.310Z,15.50
2019-02-07T09:21:23.333Z,21.30
2019-02-07T09:24:10.569Z,19.70
2019-02-07T09:26:57.595Z,16.70
2019-02-07T09:29:47.883Z,16.73
2019-02-07T09:32:34.931Z,15.10
2019-02-07T09:35:19.383Z,15.37
2019-02-07T09:38:12.341Z,20.50
2019-02-07T09:41:11.736Z,18.27
2019-02-07T09:44:04.615Z,17.17
2019-02-07T09:46:50.664Z,17.90
2019-02-07T09:49:30.071Z,14.37
2019-02-07T09:52:07.016Z,12.40
2019-02-07T09:55:00.302Z,13.37
2019-02-07T09:57:47.262Z,15.43
2019-02-07T10:00:27.451Z,17.77
2019-02-07T10:03:11.780Z,14.67
2019-02-07T10:05:57.259Z,20.80
2019-02-07T10:08:35.548Z,12.90
2019-02-07T10:11:22.647Z,18.37
2019-02-07T10:14:28.190Z,18.67
2019-02-07T10:17:12.307Z,14.63
2019-02-07T10:20:17.499Z,17.30
2019-02-07T10:23:03.222Z,20.20
2019-02-07T10:25:54.011Z,14.17
2019-02-07T10:28:57.906Z,14.43
2019-02-07T10:31:50.808Z,20.73
2019-02-07T10:34:44.107Z,18.87
2019-02-07T10:37:32.006Z,14.17
2019-02-07T10:40:17.491Z,19.70
2019-02-07T10:43:13.692Z,18.47
2019-02-07T10:46:21.454Z,16.43
2019-02-07T10:49:26.106Z,12.10
2019-02-07T10:52:15.736Z,17.60
2019-02-07T10:55:05.571Z,15.80
2019-02-07T10:57:55.944Z,15.50
2019-02-07T11:00:42.539Z,15.20
2019-02-07T11:03:28.227Z,14.83
2019-02-07T11:06:30.736Z,12.17
2019-02-07T11:09:20.822Z,11.40
2019-02-07T11:12:11.182Z,16.53
2019-02-07T11:14:53.885Z,14.57
2019-02-07T11:17:53.060Z,13.70
2019-02-07T11:20:44.683Z,15.50
2019-02-07T11:23:30.739Z,11.03
2019-02-07T11:26:20.615Z,9.73
2019-02-07T11:29:05.625Z,12.13
2019-02-07T11:32:04.936Z,15.67
2019-02-07T11:34:45.937Z,13.43
2019-02-07T11:37:36.068Z,11.50
2019-02-07T11:40:22.299Z,12.87
2019-02-07T11:43:09.427Z,14.07
2019-02-07T11:45:56.430Z,11.23
2019-02-07T11:48:49.938Z,14.83
2019-02-07T11:51:43.091Z,11.23
2019-02-07T11:54:33.910Z,16.10
2019-02-07T11:57:21.005Z,11.90
2019-02-07T12:00:14.313Z,15.90
2019-02-07T12:02:59.952Z,8.60
2019-02-07T12:05:45.862Z,11.10
2019-02-07T12:08:28.163Z,9.87
2019-02-07T12:11:17.974Z,12.43
2019-02-07T12:14:03.846Z,12.77
2019-02-07T12:16:49.661Z,9.63
2019-02-07T12:19:44.292Z,8.97
2019-02-07T12:22:29.137Z,10.97
2019-02-07T12:25:17.023Z,11.30
2019-02-07T12:27:59.812Z,9.07
2019-02-07T12:30:45.600Z,11.97
2019-02-07T12:33:38.924Z,7.93
2019-02-07T12:36:20.390Z,11.00
2019-02-07T12:39:05.798Z,10.63
2019-02-07T12:41:53.630Z,10.33
2019-02-07T12:44:42.766Z,12.90
2019-02-07T12:47:35.807Z,9.80
2019-02-07T12:50:20.744Z,8.43
2019-02-07T12:53:09.074Z,9.77
2019-02-07T12:55:54.424Z,7.50
2019-02-07T12:58:48.716Z,9.60
2019-02-07T13:01:41.041Z,8.23
2019-02-07T13:04:25.141Z,8.63
2019-02-07T13:07:10.978Z,9.53
2019-02-07T13:09:58.063Z,8.67
2019-02-07T13:12:48.261Z,8.53
2019-02-07T13:15:38.308Z,11.07
2019-02-07T13:18:27.336Z,9.10
2019-02-07T13:21:09.969Z,8.13
2019-02-07T13:24:03.537Z,8.60
2019-02-07T13:26:49.431Z,10.33
2019-02-07T13:29:46.113Z,9.83
2019-02-07T13:32:36.169Z,7.50
2019-02-07T13:35:22.613Z,12.53
2019-02-07T13:38:08.322Z,10.10
2019-02-07T13:41:06.773Z,9.70
2019-02-07T13:44:08.161Z,11.50
2019-02-07T13:46:53.997Z,10.30
2019-02-07T13:49:51.671Z,13.70
2019-02-07T13:52:27.985Z,11.30
2019-02-07T13:55:10.522Z,10.70
2019-02-07T13:58:11.433Z,12.67
2019-02-07T14:01:10.620Z,8.50
2019-02-07T14:04:15.983Z,11.93
2019-02-07T14:07:02.920Z,12.20
2019-02-07T14:09:41.285Z,10.47
2019-02-07T14:12:26.611Z,14.47
2019-02-07T14:15:22.814Z,7.07
2019-02-07T14:18:04.492Z,11.43
2019-02-07T14:20:57.806Z,8.40
2019-02-07T14:24:00.717Z,10.13
2019-02-07T14:26:47.766Z,9.53
2019-02-07T14:29:43.833Z,8.47
2019-02-07T14:32:37.847Z,10.07
2019-02-07T14:35:31.072Z,10.30
2019-02-07T14:38:14.667Z,11.27
2019-02-07T14:41:11.068Z,10.63
2019-02-07T14:44:09.935Z,9.53
2019-02-07T14:46:47.829Z,10.20
2019-02-07T14:49:17.806Z,11.60
2019-02-07T14:51:45.816Z,10.17
2019-02-07T14:54:14.140Z,10.80
2019-02-07T14:56:42.162Z,13.10
2019-02-07T14:59:10.280Z,11.50
2019-02-07T15:01:38.761Z,11.07
2019-02-07T15:04:07.212Z,11.57
2019-02-07T15:06:35.215Z,8.57
2019-02-07T15:09:04.046Z,10.90
2019-02-07T15:11:31.978Z,12.43
2019-02-07T15:13:59.999Z,10.13
2019-02-07T15:16:28.024Z,10.90
2019-02-07T15:18:56.054Z,13.13
2019-02-07T15:21:24.062Z,14.20
2019-02-07T15:23:52.014Z,16.00
2019-02-07T15:26:21.056Z,10.27
2019-02-07T15:28:49.044Z,12.53
2019-02-07T15:31:17.055Z,14.53
2019-02-07T15:33:45.053Z,14.60
2019-02-07T15:36:13.175Z,12.87
2019-02-07T15:38:41.139Z,13.07
2019-02-07T15:41:09.307Z,12.20
2019-02-07T15:43:37.299Z,15.57
2019-02-07T15:46:06.087Z,14.63
2019-02-07T15:48:34.032Z,12.83
2019-02-07T15:51:02.032Z,17.17
2019-02-07T15:53:30.075Z,13.27
2019-02-07T15:55:58.073Z,12.67
2019-02-07T15:58:36.905Z,13.87
2019-02-07T16:01:11.820Z,15.40
2019-02-07T16:03:46.629Z,16.23
2019-02-07T16:06:14.674Z,11.93
2019-02-07T16:08:42.612Z,13.87
2019-02-07T16:11:10.751Z,15.77
2019-02-07T16:13:38.779Z,14.57
2019-02-07T16:16:06.918Z,11.87
2019-02-07T16:18:34.949Z,13.73
2019-02-07T16:21:02.939Z,14.17
2019-02-07T16:23:30.925Z,14.70
2019-02-07T16:25:58.860Z,11.30
2019-02-07T16:28:28.744Z,11.70
2019-02-07T16:30:56.744Z,10.73
2019-02-07T16:33:24.976Z,10.53
2019-02-07T16:35:53.071Z,9.97
2019-02-07T16:38:21.030Z,12.00
2019-02-07T16:40:49.991Z,17.00
2019-02-07T16:43:18.094Z,16.07
2019-02-07T16:45:46.082Z,16.20
2019-02-07T16:48:14.101Z,13.80
2019-02-07T16:50:42.032Z,12.73
2019-02-07T16:53:10.136Z,13.77
2019-02-07T16:55:38.277Z,16.77
2019-02-07T16:58:06.414Z,12.87
2019-02-07T17:00:34.673Z,14.43
2019-02-07T17:03:02.847Z,14.87
2019-02-07T17:05:31.016Z,15.30
2019-02-07T17:07:59.034Z,19.83
2019-02-07T17:10:29.183Z,16.03
2019-02-07T17:12:57.193Z,16.73
2019-02-07T17:15:25.176Z,19.37
2019-02-07T17:17:53.621Z,13.90
2019-02-07T17:20:23.408Z,13.70
2019-02-07T17:22:51.413Z,15.03
2019-02-07T17:25:19.563Z,16.57
2019-02-07T17:27:47.569Z,17.40
2019-02-07T17:30:16.007Z,16.97
2019-02-07T17:32:44.025Z,12.13
2019-02-07T17:35:12.354Z,13.80
2019-02-07T17:37:40.313Z,11.13
2019-02-07T17:40:10.411Z,12.87
2019-02-07T17:42:38.467Z,14.90
2019-02-07T17:45:09.332Z,16.83
2019-02-07T17:47:37.317Z,12.33
2019-02-07T17:50:07.888Z,10.70
2019-02-07T17:52:36.002Z,12.37
2019-02-07T17:55:04.825Z,18.10
2019-02-07T17:57:32.727Z,13.43
2019-02-07T18:00:00.815Z,17.97
2019-02-07T18:02:28.821Z,17.83
2019-02-07T18:04:56.788Z,14.83
2019-02-07T18:07:24.879Z,17.30
2019-02-07T18:09:52.802Z,13.00
2019-02-07T18:12:20.820Z,15.40
2019-02-07T18:14:49.665Z,14.63
2019-02-07T18:17:17.662Z,13.47
2019-02-07T18:19:45.728Z,15.47
2019-02-07T18:22:13.825Z,17.43
2019-02-07T18:24:41.845Z,14.47
2019-02-07T18:27:10.502Z,14.67
2019-02-07T18:29:38.453Z,12.00
2019-02-07T18:32:06.511Z,16.33
2019-02-07T18:34:34.496Z,13.63
2019-02-07T18:37:02.674Z,16.90
2019-02-07T18:39:30.963Z,15.73
2019-02-07T18:41:59.093Z,11.30
2019-02-07T18:44:27.113Z,13.80
2019-02-07T18:46:55.143Z,17.33
2019-02-07T18:49:23.132Z,16.37
2019-02-07T18:51:51.141Z,17.83
2019-02-07T18:54:19.239Z,15.00
2019-02-07T18:56:47.220Z,16.50
2019-02-07T18:59:15.208Z,20.03
2019-02-07T19:01:43.127Z,16.93
2019-02-07T19:04:11.149Z,12.30
2019-02-07T19:06:39.122Z,13.43
2019-02-07T19:09:08.767Z,15.70
2019-02-07T19:11:36.825Z,18.60
2019-02-07T19:14:05.303Z,13.33
2019-02-07T19:16:33.261Z,15.93
2019-02-07T19:19:01.333Z,14.30
2019-02-07T19:21:29.456Z,15.77
2019-02-07T19:23:57.655Z,16.10
2019-02-07T19:26:25.612Z,15.00
2019-02-07T19:28:53.696Z,14.57
2019-02-07T19:31:22.071Z,18.37
2019-02-07T19:33:50.080Z,15.43
2019-02-07T19:36:18.058Z,17.30
2019-02-07T19:38:46.154Z,20.63
2019-02-07T19:41:14.117Z,14.17
2019-02-07T19:43:42.065Z,12.23
2019-02-07T19:46:10.129Z,19.80
2019-02-07T19:48:38.185Z,16.77
2019-02-07T19:51:06.175Z,16.30
2019-02-07T19:53:34.236Z,13.30
2019-02-07T19:56:02.320Z,20.30
2019-02-07T19:58:30.380Z,16.60
2019-02-07T20:00:58.428Z,16.73
2019-02-07T20:03:26.690Z,16.87
2019-02-07T20:05:54.812Z,22.97
2019-02-07T20:08:22.865Z,14.70
2019-02-07T20:10:50.869Z,16.57
2019-02-07T20:13:18.975Z,16.40
2019-02-07T20:15:46.996Z,16.80
2019-02-07T20:18:15.068Z,15.73
2019-02-07T20:20:44.013Z,13.13
2019-02-07T20:23:12.080Z,17.77
2019-02-07T20:25:40.433Z,17.17
2019-02-07T20:28:08.529Z,21.07
2019-02-07T20:30:37.368Z,17.83
2019-02-07T20:33:05.984Z,16.93
2019-02-07T20:35:33.980Z,14.27
2019-02-07T20:38:02.103Z,20.17
2019-02-07T20:40:30.361Z,16.83
2019-02-07T20:42:58.628Z,22.50
2019-02-07T20:45:26.865Z,21.47
2019-02-07T20:47:54.869Z,17.47
2019-02-07T20:50:23.469Z,16.47
2019-02-07T20:52:52.100Z,19.43
2019-02-07T20:55:20.376Z,17.03
2019-02-07T20:57:48.451Z,25.20
2019-02-07T21:00:18.235Z,18.33
2019-02-07T21:02:46.616Z,19.20
2019-02-07T21:05:14.875Z,16.40
2019-02-07T21:07:43.008Z,19.10
2019-02-07T21:10:11.813Z,16.67
2019-02-07T21:12:39.842Z,19.70
2019-02-07T21:15:08.907Z,16.73
2019-02-07T21:17:37.069Z,25.23
2019-02-07T21:20:06.879Z,15.93
2019-02-07T21:22:34.896Z,22.00
2019-02-07T21:25:02.867Z,18.47
2019-02-07T21:27:31.207Z,19.97
2019-02-07T21:29:59.277Z,16.93
2019-02-07T21:32:27.411Z,18.83
2019-02-07T21:34:55.395Z,26.50
2019-02-07T21:37:23.576Z,16.50
2019-02-07T21:39:51.559Z,23.50
2019-02-07T21:42:19.717Z,27.30
2019-02-07T21:44:47.890Z,22.93
2019-02-07T21:47:17.659Z,23.10
2019-02-07T21:49:46.442Z,19.20
2019-02-07T21:52:14.762Z,24.73
2019-02-07T21:54:43.371Z,20.27
2019-02-07T21:57:13.473Z,28.20
2019-02-07T21:59:43.378Z,21.57
2019-02-07T22:02:12.101Z,17.17
2019-02-07T22:04:43.032Z,17.37
2019-02-07T22:07:13.071Z,18.90
2019-02-07T22:09:41.362Z,19.33
2019-02-07T22:12:09.397Z,30.00
2019-02-07T22:14:37.376Z,16.80
2019-02-07T22:17:05.300Z,14.93
2019-02-07T22:19:33.344Z,19.20
2019-02-07T22:22:01.399Z,20.20
2019-02-07T22:24:31.074Z,17.83
2019-02-07T22:26:59.355Z,17.40
2019-02-07T22:29:27.301Z,12.57
2019-02-07T22:31:57.436Z,17.07
2019-02-07T22:34:25.377Z,18.73
2019-02-07T22:36:53.595Z,15.50
2019-02-07T22:39:21.561Z,16.70
2019-02-07T22:41:49.536Z,16.13
2019-02-07T22:44:17.949Z,19.50
2019-02-07T22:46:45.910Z,16.23
2019-02-07T22:49:21.215Z,12.77
2019-02-07T22:51:49.555Z,16.70
2019-02-07T22:54:17.616Z,13.93
2019-02-07T22:56:47.270Z,17.13
2019-02-07T22:59:15.548Z,14.90
2019-02-07T23:01:48.636Z,13.13
2019-02-07T23:04:16.918Z,19.50
2019-02-07T23:06:45.076Z,17.07
2019-02-07T23:09:15.100Z,19.17
2019-02-07T23:11:43.137Z,17.93
2019-02-07T23:14:11.888Z,15.67
2019-02-07T23:16:39.920Z,16.43
2019-02-07T23:19:07.885Z,17.50
2019-02-07T23:21:36.076Z,19.87
2019-02-07T23:24:06.192Z,17.63
2019-02-07T23:26:34.180Z,14.07
2019-02-07T23:29:02.848Z,13.33
2019-02-07T23:31:30.940Z,18.03
2019-02-07T23:33:58.908Z,16.97
2019-02-07T23:36:26.934Z,18.93
2019-02-07T23:38:55.073Z,17.70
2019-02-07T23:41:23.084Z,12.27
2019-02-07T23:43:51.010Z,8.30
2019-02-07T23:46:19.055Z,16.37
2019-02-07T23:48:47.257Z,13.77
2019-02-07T23:51:15.174Z,14.10
2019-02-07T23:53:43.211Z,17.53
2019-02-07T23:56:13.436Z,10.40
2019-02-07T23:58:41.435Z,14.67
